sensor_id;sensor_type;location;lat;lon;timestamp;pressure;altitude;pressure_sealevel;temperature;humidity
78337;BME280;67610;51.588;7.002;2023-02-07T00:01:54;103302.19;;;2.29;nan
78337;BME280;67610;51.588;7.002;2023-02-07T00:04:19;103315.63;;;2.25;nan
78337;BME280;67610;51.588;7.002;2023-02-07T00:06:45;103316.72;;;2.22;nan
78337;BME280;67610;51.588;7.002;2023-02-07T00:09:11;103317.91;;;2.18;nan
78337;BME280;67610;51.588;7.002;2023-02-07T00:11:37;103315.50;;;2.15;nan
78337;BME280;67610;51.588;7.002;2023-02-07T00:14:06;103316.59;;;2.12;nan
78337;BME280;67610;51.588;7.002;2023-02-07T00:16:31;103311.63;;;2.09;nan
78337;BME280;67610;51.588;7.002;2023-02-07T00:18:57;103321.72;;;2.03;nan
78337;BME280;67610;51.588;7.002;2023-02-07T00:21:23;103318.03;;;2.05;nan
78337;BME280;67610;51.588;7.002;2023-02-07T00:23:50;103321.59;;;2.04;nan
78337;BME280;67610;51.588;7.002;2023-02-07T00:26:17;103327.53;;;2.06;nan
78337;BME280;67610;51.588;7.002;2023-02-07T00:28:43;103327.91;;;1.91;nan
78337;BME280;67610;51.588;7.002;2023-02-07T00:31:16;103334.44;;;1.85;nan
78337;BME280;67610;51.588;7.002;2023-02-07T00:33:43;103334.78;;;1.80;nan
78337;BME280;67610;51.588;7.002;2023-02-07T00:36:15;103340.72;;;1.71;nan
78337;BME280;67610;51.588;7.002;2023-02-07T00:38:41;103341.41;;;1.73;nan
78337;BME280;67610;51.588;7.002;2023-02-07T00:41:07;103338.56;;;1.65;nan
78337;BME280;67610;51.588;7.002;2023-02-07T00:43:33;103331.06;;;1.61;nan
78337;BME280;67610;51.588;7.002;2023-02-07T00:46:01;103322.75;;;1.56;nan
78337;BME280;67610;51.588;7.002;2023-02-07T00:48:28;103319.41;;;1.54;nan
78337;BME280;67610;51.588;7.002;2023-02-07T00:50:53;103320.72;;;1.48;nan
78337;BME280;67610;51.588;7.002;2023-02-07T00:53:19;103314.88;;;1.44;nan
78337;BME280;67610;51.588;7.002;2023-02-07T00:55:44;103329.72;;;1.44;nan
78337;BME280;67610;51.588;7.002;2023-02-07T00:58:10;103327.44;;;1.39;nan
78337;BME280;67610;51.588;7.002;2023-02-07T01:00:35;103314.59;;;1.36;nan
78337;BME280;67610;51.588;7.002;2023-02-07T01:03:01;103329.81;;;1.31;nan
78337;BME280;67610;51.588;7.002;2023-02-07T01:05:26;103329.81;;;1.31;nan
78337;BME280;67610;51.588;7.002;2023-02-07T01:07:52;103336.81;;;1.31;nan
78337;BME280;67610;51.588;7.002;2023-02-07T01:10:18;103340.16;;;1.33;nan
78337;BME280;67610;51.588;7.002;2023-02-07T01:12:43;103338.97;;;1.37;nan
78337;BME280;67610;51.588;7.002;2023-02-07T01:15:09;103327.13;;;1.44;nan
78337;BME280;67610;51.588;7.002;2023-02-07T01:17:34;103327.00;;;1.46;nan
78337;BME280;67610;51.588;7.002;2023-02-07T01:20:00;103330.94;;;1.51;nan
78337;BME280;67610;51.588;7.002;2023-02-07T01:22:26;103343.66;;;1.56;nan
78337;BME280;67610;51.588;7.002;2023-02-07T01:24:52;103355.44;;;1.61;nan
78337;BME280;67610;51.588;7.002;2023-02-07T01:27:22;103353.44;;;1.65;nan
78337;BME280;67610;51.588;7.002;2023-02-07T01:29:48;103344.28;;;1.70;nan
78337;BME280;67610;51.588;7.002;2023-02-07T01:32:14;103342.41;;;1.72;nan
78337;BME280;67610;51.588;7.002;2023-02-07T01:34:40;103343.09;;;1.74;nan
78337;BME280;67610;51.588;7.002;2023-02-07T01:37:05;103331.44;;;1.78;nan
78337;BME280;67610;51.588;7.002;2023-02-07T01:39:31;103330.50;;;1.79;nan
78337;BME280;67610;51.588;7.002;2023-02-07T01:41:56;103341.56;;;1.83;nan
78337;BME280;67610;51.588;7.002;2023-02-07T01:46:48;103336.81;;;1.88;nan
78337;BME280;67610;51.588;7.002;2023-02-07T01:49:17;103332.63;;;1.86;nan
78337;BME280;67610;51.588;7.002;2023-02-07T01:51:52;103338.00;;;1.84;nan
78337;BME280;67610;51.588;7.002;2023-02-07T01:54:20;103331.94;;;1.84;nan
78337;BME280;67610;51.588;7.002;2023-02-07T01:56:51;103343.25;;;1.84;nan
78337;BME280;67610;51.588;7.002;2023-02-07T01:59:18;103344.09;;;1.85;nan
78337;BME280;67610;51.588;7.002;2023-02-07T02:01:45;103350.59;;;1.79;nan
78337;BME280;67610;51.588;7.002;2023-02-07T02:04:11;103342.53;;;1.82;nan
78337;BME280;67610;51.588;7.002;2023-02-07T02:06:37;103348.72;;;1.81;nan
78337;BME280;67610;51.588;7.002;2023-02-07T02:09:10;103341.19;;;1.76;nan
78337;BME280;67610;51.588;7.002;2023-02-07T02:20:54;103349.75;;;1.67;nan
78337;BME280;67610;51.588;7.002;2023-02-07T02:29:04;103350.81;;;1.65;nan
78337;BME280;67610;51.588;7.002;2023-02-07T02:36:46;103346.16;;;1.57;nan
78337;BME280;67610;51.588;7.002;2023-02-07T02:39:33;103334.16;;;1.55;nan
78337;BME280;67610;51.588;7.002;2023-02-07T02:45:11;103347.94;;;1.46;nan
78337;BME280;67610;51.588;7.002;2023-02-07T02:47:42;103340.63;;;1.38;nan
78337;BME280;67610;51.588;7.002;2023-02-07T02:50:19;103332.91;;;1.36;nan
78337;BME280;67610;51.588;7.002;2023-02-07T02:52:45;103328.66;;;1.35;nan
78337;BME280;67610;51.588;7.002;2023-02-07T02:55:11;103335.66;;;1.35;nan
78337;BME280;67610;51.588;7.002;2023-02-07T03:11:09;103316.50;;;1.23;nan
78337;BME280;67610;51.588;7.002;2023-02-07T03:19:14;103325.84;;;1.15;nan
78337;BME280;67610;51.588;7.002;2023-02-07T03:21:54;103315.75;;;1.10;nan
78337;BME280;67610;51.588;7.002;2023-02-07T03:24:25;103322.03;;;1.07;nan
78337;BME280;67610;51.588;7.002;2023-02-07T03:26:56;103325.78;;;1.03;nan
78337;BME280;67610;51.588;7.002;2023-02-07T03:29:23;103314.63;;;1.01;nan
78337;BME280;67610;51.588;7.002;2023-02-07T03:31:52;103318.44;;;0.97;nan
78337;BME280;67610;51.588;7.002;2023-02-07T03:34:26;103313.41;;;0.94;nan
78337;BME280;67610;51.588;7.002;2023-02-07T03:37:09;103319.69;;;0.92;nan
78337;BME280;67610;51.588;7.002;2023-02-07T03:39:38;103318.97;;;0.90;nan
78337;BME280;67610;51.588;7.002;2023-02-07T03:42:09;103330.34;;;0.89;nan
78337;BME280;67610;51.588;7.002;2023-02-07T03:44:37;103326.22;;;0.86;nan
78337;BME280;67610;51.588;7.002;2023-02-07T03:47:05;103331.66;;;0.83;nan
78337;BME280;67610;51.588;7.002;2023-02-07T03:49:31;103321.22;;;0.83;nan
78337;BME280;67610;51.588;7.002;2023-02-07T03:51:56;103322.88;;;0.84;nan
78337;BME280;67610;51.588;7.002;2023-02-07T03:54:21;103324.13;;;0.79;nan
78337;BME280;67610;51.588;7.002;2023-02-07T03:56:47;103326.97;;;0.76;nan
78337;BME280;67610;51.588;7.002;2023-02-07T03:59:12;103329.00;;;0.72;nan
78337;BME280;67610;51.588;7.002;2023-02-07T04:01:38;103323.75;;;0.72;nan
78337;BME280;67610;51.588;7.002;2023-02-07T04:04:07;103321.16;;;0.72;nan
78337;BME280;67610;51.588;7.002;2023-02-07T04:06:33;103320.31;;;0.71;nan
78337;BME280;67610;51.588;7.002;2023-02-07T04:08:58;103317.81;;;0.70;nan
78337;BME280;67610;51.588;7.002;2023-02-07T04:11:24;103323.03;;;0.70;nan
78337;BME280;67610;51.588;7.002;2023-02-07T04:13:49;103325.53;;;0.71;nan
78337;BME280;67610;51.588;7.002;2023-02-07T04:16:15;103323.88;;;0.70;nan
78337;BME280;67610;51.588;7.002;2023-02-07T04:18:40;103315.31;;;0.68;nan
78337;BME280;67610;51.588;7.002;2023-02-07T04:21:07;103308.53;;;0.66;nan
78337;BME280;67610;51.588;7.002;2023-02-07T04:23:33;103305.19;;;0.64;nan
78337;BME280;67610;51.588;7.002;2023-02-07T04:25:59;103307.06;;;0.62;nan
78337;BME280;67610;51.588;7.002;2023-02-07T04:28:26;103297.59;;;0.61;nan
78337;BME280;67610;51.588;7.002;2023-02-07T04:30:52;103295.19;;;0.58;nan
78337;BME280;67610;51.588;7.002;2023-02-07T04:33:18;103295.41;;;0.55;nan
78337;BME280;67610;51.588;7.002;2023-02-07T04:35:52;103289.47;;;0.53;nan
78337;BME280;67610;51.588;7.002;2023-02-07T04:38:17;103293.94;;;0.51;nan
78337;BME280;67610;51.588;7.002;2023-02-07T04:40:42;103298.47;;;0.49;nan
78337;BME280;67610;51.588;7.002;2023-02-07T04:43:08;103289.19;;;0.45;nan
78337;BME280;67610;51.588;7.002;2023-02-07T04:45:33;103272.78;;;0.43;nan
78337;BME280;67610;51.588;7.002;2023-02-07T04:47:59;103282.41;;;0.42;nan
78337;BME280;67610;51.588;7.002;2023-02-07T04:50:24;103287.72;;;0.41;nan
78337;BME280;67610;51.588;7.002;2023-02-07T04:52:49;103292.13;;;0.40;nan
78337;BME280;67610;51.588;7.002;2023-02-07T04:55:15;103290.34;;;0.41;nan
78337;BME280;67610;51.588;7.002;2023-02-07T04:57:40;103298.38;;;0.38;nan
78337;BME280;67610;51.588;7.002;2023-02-07T05:00:06;103299.34;;;0.37;nan
78337;BME280;67610;51.588;7.002;2023-02-07T05:02:32;103292.47;;;0.35;nan
78337;BME280;67610;51.588;7.002;2023-02-07T05:04:57;103299.47;;;0.35;nan
78337;BME280;67610;51.588;7.002;2023-02-07T05:07:23;103296.94;;;0.33;nan
78337;BME280;67610;51.588;7.002;2023-02-07T05:09:48;103305.00;;;0.30;nan
78337;BME280;67610;51.588;7.002;2023-02-07T05:12:14;103299.88;;;0.29;nan
78337;BME280;67610;51.588;7.002;2023-02-07T05:14:39;103299.97;;;0.27;nan
78337;BME280;67610;51.588;7.002;2023-02-07T05:17:04;103306.13;;;0.26;nan
78337;BME280;67610;51.588;7.002;2023-02-07T05:19:30;103306.25;;;0.25;nan
78337;BME280;67610;51.588;7.002;2023-02-07T05:21:56;103309.81;;;0.24;nan
78337;BME280;67610;51.588;7.002;2023-02-07T05:24:22;103307.31;;;0.22;nan
78337;BME280;67610;51.588;7.002;2023-02-07T05:26:47;103309.31;;;0.19;nan
78337;BME280;67610;51.588;7.002;2023-02-07T05:29:13;103309.31;;;0.19;nan
78337;BME280;67610;51.588;7.002;2023-02-07T05:31:38;103320.56;;;0.19;nan
78337;BME280;67610;51.588;7.002;2023-02-07T05:34:23;103318.69;;;0.21;nan
78337;BME280;67610;51.588;7.002;2023-02-07T05:36:48;103316.91;;;0.22;nan
78337;BME280;67610;51.588;7.002;2023-02-07T05:39:13;103319.63;;;0.20;nan
78337;BME280;67610;51.588;7.002;2023-02-07T05:41:39;103319.63;;;0.20;nan
78337;BME280;67610;51.588;7.002;2023-02-07T05:44:04;103333.63;;;0.19;nan
78337;BME280;67610;51.588;7.002;2023-02-07T05:46:31;103322.34;;;0.19;nan
78337;BME280;67610;51.588;7.002;2023-02-07T05:48:56;103330.28;;;0.17;nan
78337;BME280;67610;51.588;7.002;2023-02-07T05:51:22;103325.25;;;0.14;nan
78337;BME280;67610;51.588;7.002;2023-02-07T05:53:47;103329.53;;;0.15;nan
78337;BME280;67610;51.588;7.002;2023-02-07T05:56:12;103330.28;;;0.17;nan
78337;BME280;67610;51.588;7.002;2023-02-07T05:58:38;103334.66;;;0.17;nan
78337;BME280;67610;51.588;7.002;2023-02-07T06:01:03;103345.19;;;0.15;nan
78337;BME280;67610;51.588;7.002;2023-02-07T06:03:29;103333.19;;;0.13;nan
78337;BME280;67610;51.588;7.002;2023-02-07T06:05:54;103342.00;;;0.12;nan
78337;BME280;67610;51.588;7.002;2023-02-07T06:08:20;103339.50;;;0.10;nan
78337;BME280;67610;51.588;7.002;2023-02-07T06:10:47;103339.50;;;0.10;nan
78337;BME280;67610;51.588;7.002;2023-02-07T06:13:13;103337.19;;;0.06;nan
78337;BME280;67610;51.588;7.002;2023-02-07T06:15:39;103340.00;;;0.03;nan
78337;BME280;67610;51.588;7.002;2023-02-07T06:18:04;103340.00;;;0.03;nan
78337;BME280;67610;51.588;7.002;2023-02-07T06:20:30;103342.41;;;0.06;nan
78337;BME280;67610;51.588;7.002;2023-02-07T06:22:55;103345.13;;;0.04;nan
78337;BME280;67610;51.588;7.002;2023-02-07T06:25:21;103346.88;;;0.04;nan
78337;BME280;67610;51.588;7.002;2023-02-07T06:27:46;103345.13;;;0.04;nan
78337;BME280;67610;51.588;7.002;2023-02-07T06:30:12;103349.50;;;0.04;nan
78337;BME280;67610;51.588;7.002;2023-02-07T06:32:38;103347.72;;;0.04;nan
78337;BME280;67610;51.588;7.002;2023-02-07T06:35:05;103353.88;;;0.03;nan
78337;BME280;67610;51.588;7.002;2023-02-07T06:37:30;103359.19;;;0.02;nan
78337;BME280;67610;51.588;7.002;2023-02-07T06:39:56;103356.81;;;-0.02;nan
78337;BME280;67610;51.588;7.002;2023-02-07T06:42:21;103355.16;;;-0.03;nan
78337;BME280;67610;51.588;7.002;2023-02-07T06:44:47;103359.72;;;-0.06;nan
78337;BME280;67610;51.588;7.002;2023-02-07T06:47:12;103361.59;;;-0.08;nan
78337;BME280;67610;51.588;7.002;2023-02-07T06:49:38;103360.78;;;-0.09;nan
78337;BME280;67610;51.588;7.002;2023-02-07T06:52:04;103359.94;;;-0.09;nan
78337;BME280;67610;51.588;7.002;2023-02-07T06:54:29;103359.72;;;-0.06;nan
78337;BME280;67610;51.588;7.002;2023-02-07T06:56:55;103357.75;;;-0.03;nan
78337;BME280;67610;51.588;7.002;2023-02-07T06:59:20;103355.88;;;-0.01;nan
78337;BME280;67610;51.588;7.002;2023-02-07T07:01:45;103356.94;;;-0.03;nan
78337;BME280;67610;51.588;7.002;2023-02-07T07:04:11;103364.13;;;-0.07;nan
78337;BME280;67610;51.588;7.002;2023-02-07T07:06:36;103360.66;;;-0.07;nan
78337;BME280;67610;51.588;7.002;2023-02-07T07:09:03;103364.31;;;-0.10;nan
78337;BME280;67610;51.588;7.002;2023-02-07T07:11:28;103371.19;;;-0.09;nan
78337;BME280;67610;51.588;7.002;2023-02-07T07:13:54;103372.97;;;-0.09;nan
78337;BME280;67610;51.588;7.002;2023-02-07T07:16:19;103369.53;;;-0.10;nan
78337;BME280;67610;51.588;7.002;2023-02-07T07:18:45;103379.13;;;-0.10;nan
78337;BME280;67610;51.588;7.002;2023-02-07T07:21:10;103373.81;;;-0.09;nan
78337;BME280;67610;51.588;7.002;2023-02-07T07:23:36;103383.00;;;-0.03;nan
78337;BME280;67610;51.588;7.002;2023-02-07T07:26:02;103380.19;;;0.00;nan
78337;BME280;67610;51.588;7.002;2023-02-07T07:28:27;103375.19;;;-0.03;nan
78337;BME280;67610;51.588;7.002;2023-02-07T07:30:53;103372.56;;;-0.03;nan
78337;BME280;67610;51.588;7.002;2023-02-07T07:33:19;103376.84;;;-0.02;nan
78337;BME280;67610;51.588;7.002;2023-02-07T07:35:44;103372.25;;;0.02;nan
78337;BME280;67610;51.588;7.002;2023-02-07T07:38:09;103374.66;;;0.05;nan
78337;BME280;67610;51.588;7.002;2023-02-07T07:40:35;103369.31;;;0.06;nan
78337;BME280;67610;51.588;7.002;2023-02-07T07:43:01;103378.63;;;0.10;nan
78337;BME280;67610;51.588;7.002;2023-02-07T07:45:27;103370.56;;;0.13;nan
78337;BME280;67610;51.588;7.002;2023-02-07T07:47:52;103379.84;;;0.17;nan
78337;BME280;67610;51.588;7.002;2023-02-07T07:50:18;103384.03;;;0.20;nan
78337;BME280;67610;51.588;7.002;2023-02-07T07:52:43;103388.13;;;0.24;nan
78337;BME280;67610;51.588;7.002;2023-02-07T07:55:09;103394.75;;;0.28;nan
78337;BME280;67610;51.588;7.002;2023-02-07T07:57:34;103397.69;;;0.36;nan
78337;BME280;67610;51.588;7.002;2023-02-07T08:00:00;103398.31;;;0.40;nan
78337;BME280;67610;51.588;7.002;2023-02-07T08:02:26;103397.16;;;0.44;nan
78337;BME280;67610;51.588;7.002;2023-02-07T08:04:52;103397.78;;;0.47;nan
78337;BME280;67610;51.588;7.002;2023-02-07T08:07:17;103412.78;;;0.56;nan
78337;BME280;67610;51.588;7.002;2023-02-07T08:09:43;103409.88;;;0.61;nan
78337;BME280;67610;51.588;7.002;2023-02-07T08:12:09;103410.38;;;0.66;nan
78337;BME280;67610;51.588;7.002;2023-02-07T08:14:34;103408.28;;;0.71;nan
78337;BME280;67610;51.588;7.002;2023-02-07T08:17:00;103407.00;;;0.77;nan
78337;BME280;67610;51.588;7.002;2023-02-07T08:19:25;103410.97;;;0.82;nan
78337;BME280;67610;51.588;7.002;2023-02-07T08:21:51;103399.22;;;0.88;nan
78337;BME280;67610;51.588;7.002;2023-02-07T08:24:16;103403.56;;;1.00;nan
78337;BME280;67610;51.588;7.002;2023-02-07T08:26:42;103396.19;;;1.18;nan
78337;BME280;67610;51.588;7.002;2023-02-07T08:29:07;103404.31;;;1.37;nan
78337;BME280;67610;51.588;7.002;2023-02-07T08:31:33;103404.28;;;1.61;nan
78337;BME280;67610;51.588;7.002;2023-02-07T08:33:58;103401.63;;;1.85;nan
78337;BME280;67610;51.588;7.002;2023-02-07T08:36:24;103404.16;;;2.08;nan
78337;BME280;67610;51.588;7.002;2023-02-07T08:38:50;103410.38;;;2.30;nan
78337;BME280;67610;51.588;7.002;2023-02-07T08:41:22;103407.63;;;2.53;nan
78337;BME280;67610;51.588;7.002;2023-02-07T08:43:47;103413.53;;;2.78;nan
78337;BME280;67610;51.588;7.002;2023-02-07T08:46:12;103416.34;;;2.97;nan
78337;BME280;67610;51.588;7.002;2023-02-07T08:48:38;103409.28;;;3.20;nan
78337;BME280;67610;51.588;7.002;2023-02-07T08:51:05;103406.66;;;3.41;nan
78337;BME280;67610;51.588;7.002;2023-02-07T08:53:31;103414.66;;;3.60;nan
78337;BME280;67610;51.588;7.002;2023-02-07T08:55:56;103406.50;;;3.74;nan
78337;BME280;67610;51.588;7.002;2023-02-07T08:58:22;103404.63;;;3.86;nan
78337;BME280;67610;51.588;7.002;2023-02-07T09:01:00;103396.94;;;3.94;nan
78337;BME280;67610;51.588;7.002;2023-02-07T09:03:25;103408.13;;;3.96;nan
78337;BME280;67610;51.588;7.002;2023-02-07T09:05:56;103402.13;;;4.05;nan
78337;BME280;67610;51.588;7.002;2023-02-07T09:08:22;103397.00;;;4.04;nan
78337;BME280;67610;51.588;7.002;2023-02-07T09:10:47;103395.22;;;4.04;nan
78337;BME280;67610;51.588;7.002;2023-02-07T09:13:12;103396.75;;;4.07;nan
78337;BME280;67610;51.588;7.002;2023-02-07T09:15:38;103397.56;;;4.07;nan
78337;BME280;67610;51.588;7.002;2023-02-07T09:18:03;103395.78;;;4.08;nan
78337;BME280;67610;51.588;7.002;2023-02-07T09:20:29;103393.00;;;4.09;nan
78337;BME280;67610;51.588;7.002;2023-02-07T09:22:54;103388.03;;;4.06;nan
78337;BME280;67610;51.588;7.002;2023-02-07T09:25:38;103385.53;;;4.05;nan
78337;BME280;67610;51.588;7.002;2023-02-07T09:28:04;103383.47;;;4.08;nan
78337;BME280;67610;51.588;7.002;2023-02-07T09:30:29;103387.50;;;4.12;nan
78337;BME280;67610;51.588;7.002;2023-02-07T09:32:56;103388.91;;;4.16;nan
78337;BME280;67610;51.588;7.002;2023-02-07T09:35:22;103387.84;;;4.28;nan
78337;BME280;67610;51.588;7.002;2023-02-07T09:37:47;103399.09;;;4.40;nan
78337;BME280;67610;51.588;7.002;2023-02-07T09:40:19;103396.63;;;4.58;nan
78337;BME280;67610;51.588;7.002;2023-02-07T09:42:57;103402.66;;;4.79;nan
78337;BME280;67610;51.588;7.002;2023-02-07T09:45:28;103395.91;;;4.96;nan
78337;BME280;67610;51.588;7.002;2023-02-07T09:48:01;103405.75;;;5.23;nan
78337;BME280;67610;51.588;7.002;2023-02-07T09:50:33;103397.03;;;5.51;nan
78337;BME280;67610;51.588;7.002;2023-02-07T09:53:07;103384.50;;;5.82;nan
78337;BME280;67610;51.588;7.002;2023-02-07T09:55:53;103393.19;;;6.11;nan
78337;BME280;67610;51.588;7.002;2023-02-07T10:01:13;103388.69;;;6.76;nan
78337;BME280;67610;51.588;7.002;2023-02-07T10:04:31;103392.94;;;7.05;nan
78337;BME280;67610;51.588;7.002;2023-02-07T10:06:39;103390.94;;;7.42;nan
78337;BME280;67610;51.588;7.002;2023-02-07T10:09:14;103392.44;;;7.63;nan
78337;BME280;67610;51.588;7.002;2023-02-07T10:20:33;103380.19;;;8.39;nan
78337;BME280;67610;51.588;7.002;2023-02-07T10:26:10;103376.03;;;8.87;nan
78337;BME280;67610;51.588;7.002;2023-02-07T10:29:17;103373.72;;;9.00;nan
78337;BME280;67610;51.588;7.002;2023-02-07T10:31:47;103370.25;;;9.24;nan
78337;BME280;67610;51.588;7.002;2023-02-07T10:34:23;103374.72;;;9.40;nan
78337;BME280;67610;51.588;7.002;2023-02-07T10:36:52;103364.94;;;9.56;nan
78337;BME280;67610;51.588;7.002;2023-02-07T10:39:24;103358.97;;;9.70;nan
78337;BME280;67610;51.588;7.002;2023-02-07T10:41:51;103352.31;;;9.83;nan
78337;BME280;67610;51.588;7.002;2023-02-07T10:44:20;103365.06;;;9.87;nan
78337;BME280;67610;51.588;7.002;2023-02-07T10:47:04;103367.19;;;10.00;nan
78337;BME280;67610;51.588;7.002;2023-02-07T10:49:35;103370.94;;;10.14;nan
78337;BME280;67610;51.588;7.002;2023-02-07T10:52:11;103376.38;;;10.28;nan
78337;BME280;67610;51.588;7.002;2023-02-07T10:54:50;103381.78;;;10.43;nan
78337;BME280;67610;51.588;7.002;2023-02-07T10:57:18;103380.22;;;10.57;nan
78337;BME280;67610;51.588;7.002;2023-02-07T10:59:44;103376.19;;;10.69;nan
78337;BME280;67610;51.588;7.002;2023-02-07T11:07:39;103379.97;;;10.97;nan
78337;BME280;67610;51.588;7.002;2023-02-07T11:10:20;103378.56;;;10.87;nan
78337;BME280;67610;51.588;7.002;2023-02-07T11:12:56;103378.09;;;10.83;nan
78337;BME280;67610;51.588;7.002;2023-02-07T11:15:35;103385.72;;;10.78;nan
78337;BME280;67610;51.588;7.002;2023-02-07T11:18:02;103386.09;;;10.75;nan
78337;BME280;67610;51.588;7.002;2023-02-07T11:20:32;103383.81;;;10.64;nan
78337;BME280;67610;51.588;7.002;2023-02-07T11:22:59;103382.09;;;10.48;nan
78337;BME280;67610;51.588;7.002;2023-02-07T11:25:29;103388.47;;;10.15;nan
78337;BME280;67610;51.588;7.002;2023-02-07T11:27:57;103378.66;;;9.84;nan
78337;BME280;67610;51.588;7.002;2023-02-07T11:30:26;103368.44;;;9.49;nan
78337;BME280;67610;51.588;7.002;2023-02-07T11:32:58;103364.94;;;9.16;nan
78337;BME280;67610;51.588;7.002;2023-02-07T11:35:25;103372.53;;;8.94;nan
78337;BME280;67610;51.588;7.002;2023-02-07T11:38:02;103366.56;;;8.76;nan
78337;BME280;67610;51.588;7.002;2023-02-07T11:40:29;103361.25;;;8.60;nan
78337;BME280;67610;51.588;7.002;2023-02-07T11:43:17;103357.84;;;8.42;nan
78337;BME280;67610;51.588;7.002;2023-02-07T11:45:48;103356.81;;;8.26;nan
78337;BME280;67610;51.588;7.002;2023-02-07T11:48:25;103358.44;;;7.93;nan
78337;BME280;67610;51.588;7.002;2023-02-07T11:50:54;103350.91;;;7.73;nan
78337;BME280;67610;51.588;7.002;2023-02-07T11:53:39;103349.97;;;7.56;nan
78337;BME280;67610;51.588;7.002;2023-02-07T11:56:06;103344.78;;;7.46;nan
78337;BME280;67610;51.588;7.002;2023-02-07T11:58:42;103346.84;;;7.35;nan
78337;BME280;67610;51.588;7.002;2023-02-07T12:01:15;103340.00;;;7.24;nan
78337;BME280;67610;51.588;7.002;2023-02-07T12:03:52;103335.13;;;7.11;nan
78337;BME280;67610;51.588;7.002;2023-02-07T12:09:44;103340.38;;;6.94;nan
78337;BME280;67610;51.588;7.002;2023-02-07T12:12:49;103346.63;;;6.93;nan
78337;BME280;67610;51.588;7.002;2023-02-07T12:15:27;103336.09;;;6.93;nan
78337;BME280;67610;51.588;7.002;2023-02-07T12:20:27;103347.84;;;6.80;nan
78337;BME280;67610;51.588;7.002;2023-02-07T12:25:47;103345.88;;;6.65;nan
78337;BME280;67610;51.588;7.002;2023-02-07T12:28:24;103334.81;;;6.61;nan
78337;BME280;67610;51.588;7.002;2023-02-07T12:30:54;103333.56;;;6.56;nan
78337;BME280;67610;51.588;7.002;2023-02-07T12:36:20;103325.16;;;6.52;nan
78337;BME280;67610;51.588;7.002;2023-02-07T12:38:53;103327.25;;;6.48;nan
78337;BME280;67610;51.588;7.002;2023-02-07T12:41:45;103318.66;;;6.46;nan
78337;BME280;67610;51.588;7.002;2023-02-07T12:44:21;103324.31;;;6.52;nan
78337;BME280;67610;51.588;7.002;2023-02-07T12:47:00;103319.19;;;6.50;nan
78337;BME280;67610;51.588;7.002;2023-02-07T12:53:17;103312.56;;;6.46;nan
78337;BME280;67610;51.588;7.002;2023-02-07T12:58:54;103308.56;;;6.42;nan
78337;BME280;67610;51.588;7.002;2023-02-07T13:06:34;103302.41;;;6.24;nan
78337;BME280;67610;51.588;7.002;2023-02-07T13:09:18;103298.13;;;6.23;nan
78337;BME280;67610;51.588;7.002;2023-02-07T13:20:20;103292.56;;;6.26;nan
78337;BME280;67610;51.588;7.002;2023-02-07T13:23:00;103297.69;;;6.27;nan
78337;BME280;67610;51.588;7.002;2023-02-07T13:25:31;103304.91;;;6.25;nan
78337;BME280;67610;51.588;7.002;2023-02-07T13:28:04;103294.66;;;6.22;nan
78337;BME280;67610;51.588;7.002;2023-02-07T13:30:32;103291.88;;;6.24;nan
78337;BME280;67610;51.588;7.002;2023-02-07T13:33:03;103288.41;;;6.23;nan
78337;BME280;67610;51.588;7.002;2023-02-07T13:35:36;103279.81;;;6.21;nan
78337;BME280;67610;51.588;7.002;2023-02-07T13:51:58;103274.19;;;6.34;nan
78337;BME280;67610;51.588;7.002;2023-02-07T13:56:57;103276.16;;;6.32;nan
78337;BME280;67610;51.588;7.002;2023-02-07T13:59:41;103274.13;;;6.26;nan
78337;BME280;67610;51.588;7.002;2023-02-07T14:02:21;103278.03;;;6.22;nan
78337;BME280;67610;51.588;7.002;2023-02-07T14:04:57;103275.94;;;6.25;nan
78337;BME280;67610;51.588;7.002;2023-02-07T14:07:32;103269.16;;;6.23;nan
78337;BME280;67610;51.588;7.002;2023-02-07T14:10:01;103273.97;;;6.27;nan
78337;BME280;67610;51.588;7.002;2023-02-07T14:12:31;103273.00;;;6.28;nan
78337;BME280;67610;51.588;7.002;2023-02-07T14:21:29;103281.88;;;6.27;nan
78337;BME280;67610;51.588;7.002;2023-02-07T14:31:54;103276.16;;;6.32;nan
78337;BME280;67610;51.588;7.002;2023-02-07T14:34:22;103276.63;;;6.27;nan
78337;BME280;67610;51.588;7.002;2023-02-07T14:36:49;103279.69;;;6.23;nan
78337;BME280;67610;51.588;7.002;2023-02-07T14:41:46;103287.88;;;6.20;nan
78337;BME280;67610;51.588;7.002;2023-02-07T14:44:28;103282.03;;;6.26;nan
78337;BME280;67610;51.588;7.002;2023-02-07T14:46:57;103268.84;;;6.26;nan
78337;BME280;67610;51.588;7.002;2023-02-07T14:49:42;103273.50;;;6.32;nan
78337;BME280;67610;51.588;7.002;2023-02-07T14:52:21;103277.66;;;6.34;nan
78337;BME280;67610;51.588;7.002;2023-02-07T14:54:57;103274.19;;;6.34;nan
78337;BME280;67610;51.588;7.002;2023-02-07T15:12:57;103264.91;;;6.12;nan
78337;BME280;67610;51.588;7.002;2023-02-07T15:15:25;103259.25;;;6.07;nan
78337;BME280;67610;51.588;7.002;2023-02-07T15:17:54;103263.84;;;6.05;nan
78337;BME280;67610;51.588;7.002;2023-02-07T15:20:32;103261.50;;;6.02;nan
78337;BME280;67610;51.588;7.002;2023-02-07T15:23:01;103258.03;;;6.01;nan
78337;BME280;67610;51.588;7.002;2023-02-07T15:25:27;103263.44;;;6.00;nan
78337;BME280;67610;51.588;7.002;2023-02-07T15:28:02;103254.56;;;6.01;nan
78337;BME280;67610;51.588;7.002;2023-02-07T15:30:29;103254.56;;;6.01;nan
78337;BME280;67610;51.588;7.002;2023-02-07T15:32:55;103263.59;;;5.98;nan
78337;BME280;67610;51.588;7.002;2023-02-07T15:35:24;103261.09;;;5.97;nan
78337;BME280;67610;51.588;7.002;2023-02-07T15:37:54;103256.56;;;5.89;nan
78337;BME280;67610;51.588;7.002;2023-02-07T15:40:22;103252.00;;;5.82;nan
78337;BME280;67610;51.588;7.002;2023-02-07T15:42:52;103265.16;;;5.82;nan
78337;BME280;67610;51.588;7.002;2023-02-07T15:45:27;103265.31;;;5.80;nan
78337;BME280;67610;51.588;7.002;2023-02-07T15:48:02;103257.72;;;5.77;nan
78337;BME280;67610;51.588;7.002;2023-02-07T15:50:31;103256.75;;;5.78;nan
78337;BME280;67610;51.588;7.002;2023-02-07T15:52:59;103261.31;;;5.76;nan
78337;BME280;67610;51.588;7.002;2023-02-07T15:55:35;103259.94;;;5.72;nan